createdAt,value
2018-02-03T00:00:04.966Z,0.71
2018-02-03T00:02:32.544Z,0.70
2018-02-03T00:05:00.066Z,0.71
2018-02-03T00:07:27.580Z,0.74
2018-02-03T00:09:55.176Z,0.77
2018-02-03T00:12:22.714Z,0.77
2018-02-03T00:14:50.265Z,0.86
2018-02-03T00:17:18.202Z,0.90
2018-02-03T00:19:45.714Z,0.92
2018-02-03T00:22:13.226Z,0.94
2018-02-03T00:24:40.790Z,0.95
2018-02-03T00:27:08.324Z,0.99
2018-02-03T00:29:35.843Z,0.97
2018-02-03T00:32:03.432Z,0.98
2018-02-03T00:34:30.958Z,1.04
2018-02-03T00:36:58.511Z,0.96
2018-02-03T00:39:26.090Z,0.97
2018-02-03T00:41:53.636Z,0.96
2018-02-03T00:44:21.189Z,0.99
2018-02-03T00:46:48.745Z,1.03
2018-02-03T00:49:16.321Z,1.04
2018-02-03T00:51:43.892Z,1.10
2018-02-03T00:54:11.417Z,1.13
2018-02-03T00:56:39.004Z,1.15
2018-02-03T00:59:06.542Z,1.11
2018-02-03T01:01:34.072Z,1.03
2018-02-03T01:04:01.643Z,1.02
2018-02-03T01:06:29.193Z,1.06
2018-02-03T01:08:56.745Z,1.04
2018-02-03T01:11:24.319Z,1.09
2018-02-03T01:13:51.850Z,1.03
2018-02-03T01:16:19.360Z,1.09
2018-02-03T01:18:46.929Z,1.08
2018-02-03T01:21:14.477Z,1.09
2018-02-03T01:23:42.009Z,1.08
2018-02-03T01:26:09.567Z,1.08
2018-02-03T01:28:37.122Z,1.07
2018-02-03T01:31:04.649Z,1.10
2018-02-03T01:33:32.184Z,1.12
2018-02-03T01:35:59.737Z,1.15
2018-02-03T01:38:27.342Z,1.13
2018-02-03T01:40:54.870Z,1.06
2018-02-03T01:43:22.384Z,1.10
2018-02-03T01:45:49.984Z,1.07
2018-02-03T01:48:17.550Z,1.06
2018-02-03T01:50:45.112Z,1.07
2018-02-03T01:53:12.712Z,1.03
2018-02-03T01:55:40.299Z,1.07
2018-02-03T01:58:07.807Z,1.14
2018-02-03T02:00:35.424Z,1.17
2018-02-03T02:03:03.318Z,1.14
2018-02-03T02:05:30.880Z,1.13
2018-02-03T02:07:58.433Z,1.14
2018-02-03T02:10:26.036Z,1.17
2018-02-03T02:12:53.560Z,1.10
2018-02-03T02:15:21.138Z,1.07
2018-02-03T02:17:48.662Z,1.12
2018-02-03T02:20:16.232Z,1.17
2018-02-03T02:22:43.822Z,1.19
2018-02-03T02:25:11.350Z,1.23
2018-02-03T02:27:38.944Z,1.24
2018-02-03T02:30:06.532Z,1.17
2018-02-03T02:32:34.045Z,1.11
2018-02-03T02:35:01.736Z,1.26
2018-02-03T02:37:29.274Z,1.32
2018-02-03T02:39:56.792Z,1.15
2018-02-03T02:42:24.400Z,1.09
2018-02-03T02:44:51.911Z,1.08
2018-02-03T02:47:19.424Z,1.09
2018-02-03T02:49:46.965Z,1.14
2018-02-03T02:52:14.554Z,1.13
2018-02-03T02:54:42.072Z,1.05
2018-02-03T02:57:09.613Z,1.07
2018-02-03T02:59:37.490Z,1.00
2018-02-03T03:02:05.024Z,0.99
2018-02-03T03:04:32.620Z,0.98
2018-02-03T03:07:00.540Z,0.96
2018-02-03T03:09:28.068Z,1.00
2018-02-03T03:11:55.625Z,0.98
2018-02-03T03:14:23.266Z,1.00
2018-02-03T03:16:50.804Z,1.02
2018-02-03T03:19:18.317Z,1.02
2018-02-03T03:21:45.847Z,1.00
2018-02-03T03:24:13.382Z,1.00
2018-02-03T03:26:40.956Z,1.02
2018-02-03T03:29:08.488Z,1.01
2018-02-03T03:31:36.007Z,1.02
2018-02-03T03:34:03.540Z,1.06
2018-02-03T03:36:31.100Z,1.14
2018-02-03T03:38:58.824Z,1.25
2018-02-03T03:41:26.425Z,1.22
2018-02-03T03:43:53.977Z,1.30
2018-02-03T03:46:21.491Z,1.22
2018-02-03T03:48:49.053Z,1.32
2018-02-03T03:51:16.907Z,1.35
2018-02-03T03:53:44.436Z,1.29
2018-02-03T03:56:11.958Z,1.41
2018-02-03T03:58:39.549Z,1.44
2018-02-03T04:01:07.101Z,1.43
2018-02-03T04:03:34.793Z,1.28
2018-02-03T04:06:02.332Z,1.24
2018-02-03T04:08:30.204Z,1.33
2018-02-03T04:10:57.749Z,1.23
2018-02-03T04:13:25.293Z,1.25
2018-02-03T04:15:52.869Z,1.31
2018-02-03T04:18:20.450Z,1.34
2018-02-03T04:20:47.974Z,1.39
2018-02-03T04:23:15.494Z,1.49
2018-02-03T04:25:43.038Z,1.39
2018-02-03T04:28:10.581Z,1.36
2018-02-03T04:30:38.271Z,1.27
2018-02-03T04:33:05.775Z,1.29
2018-02-03T04:35:33.342Z,1.22
2018-02-03T04:38:01.256Z,1.26
2018-02-03T04:40:28.775Z,1.38
2018-02-03T04:42:56.289Z,1.23
2018-02-03T04:45:24.194Z,1.13
2018-02-03T04:47:51.706Z,1.01
2018-02-03T04:50:19.261Z,1.08
2018-02-03T04:52:47.222Z,1.13
2018-02-03T04:55:14.736Z,1.00
2018-02-03T04:57:42.242Z,0.88
2018-02-03T05:00:09.852Z,1.03
2018-02-03T05:02:37.377Z,0.95
2018-02-03T05:05:04.889Z,0.92
2018-02-03T05:07:32.843Z,1.00
2018-02-03T05:10:00.351Z,1.06
2018-02-03T05:12:27.864Z,0.92
2018-02-03T05:14:55.431Z,0.97
2018-02-03T05:17:22.948Z,0.85
2018-02-03T05:19:50.492Z,0.82
2018-02-03T05:22:18.027Z,0.93
2018-02-03T05:24:45.597Z,0.91
2018-02-03T05:27:13.151Z,0.87
2018-02-03T05:29:40.706Z,0.82
2018-02-03T05:32:10.120Z,0.87
2018-02-03T05:34:37.674Z,0.94
2018-02-03T05:37:05.245Z,0.90
2018-02-03T05:39:32.788Z,0.87
2018-02-03T05:42:00.361Z,0.89
2018-02-03T05:47:30.747Z,0.96
2018-02-03T05:49:58.293Z,0.93
2018-02-03T05:52:25.846Z,0.93
2018-02-03T05:54:53.429Z,1.14
2018-02-03T05:57:20.989Z,1.48
2018-02-03T05:59:48.508Z,1.39
2018-02-03T06:02:16.071Z,1.20
2018-02-03T06:04:43.584Z,1.12
2018-02-03T06:07:11.130Z,0.97
2018-02-03T06:09:38.792Z,1.00
2018-02-03T06:12:06.363Z,0.99
2018-02-03T06:14:33.884Z,0.94
2018-02-03T06:17:01.446Z,0.91
2018-02-03T06:19:29.002Z,0.91
2018-02-03T06:21:56.551Z,0.79
2018-02-03T06:24:24.082Z,0.76
2018-02-03T06:26:51.630Z,0.74
2018-02-03T06:29:19.139Z,0.76
2018-02-03T06:31:46.680Z,0.80
2018-02-03T06:34:14.305Z,0.77
2018-02-03T06:36:41.889Z,0.86
2018-02-03T06:39:09.447Z,0.95
2018-02-03T06:41:36.950Z,1.00
2018-02-03T06:44:04.499Z,0.96
2018-02-03T06:46:32.090Z,0.93
2018-02-03T06:48:59.984Z,0.89
2018-02-03T06:51:27.513Z,0.90
2018-02-03T06:53:55.059Z,0.97
2018-02-03T06:56:22.616Z,0.95
2018-02-03T06:58:50.130Z,0.91
2018-02-03T07:01:17.643Z,0.94
2018-02-03T07:03:45.241Z,0.96
2018-02-03T07:06:12.794Z,0.94
2018-02-03T07:08:40.311Z,0.99
2018-02-03T07:11:07.895Z,0.99
2018-02-03T07:13:35.408Z,0.97
2018-02-03T07:16:02.958Z,1.04
2018-02-03T07:18:30.527Z,1.04
2018-02-03T07:20:58.085Z,1.02
2018-02-03T07:23:25.665Z,0.93
2018-02-03T07:25:53.207Z,0.84
2018-02-03T07:28:20.706Z,0.73
2018-02-03T07:30:48.325Z,0.67
2018-02-03T07:33:15.938Z,0.56
2018-02-03T07:35:43.482Z,0.50
2018-02-03T07:38:11.043Z,0.55
2018-02-03T07:40:38.566Z,0.64
2018-02-03T07:43:06.136Z,0.81
2018-02-03T07:45:33.678Z,0.97
2018-02-03T07:48:01.187Z,1.07
2018-02-03T07:50:29.137Z,1.11
2018-02-03T07:52:56.669Z,1.12
2018-02-03T07:55:24.217Z,1.09
2018-02-03T07:57:51.760Z,1.12
2018-02-03T08:00:19.353Z,1.27
2018-02-03T08:02:46.891Z,1.45
2018-02-03T08:05:14.399Z,1.35
2018-02-03T08:07:42.007Z,1.35
2018-02-03T08:10:09.535Z,1.42
2018-02-03T08:12:37.058Z,1.43
2018-02-03T08:15:04.679Z,1.43
2018-02-03T08:17:32.259Z,1.55
2018-02-03T08:19:59.808Z,1.66
2018-02-03T08:22:27.401Z,1.82
2018-02-03T08:24:55.136Z,1.86
2018-02-03T08:27:22.669Z,1.89
2018-02-03T08:29:50.371Z,1.92
2018-02-03T08:32:17.998Z,2.01
2018-02-03T08:34:45.709Z,2.12
2018-02-03T08:37:13.300Z,2.27
2018-02-03T08:39:40.848Z,2.12
2018-02-03T08:42:08.566Z,2.18
2018-02-03T08:44:36.114Z,2.23
2018-02-03T08:47:04.000Z,2.32
2018-02-03T08:49:31.550Z,2.33
2018-02-03T08:51:59.221Z,2.33
2018-02-03T08:54:26.754Z,2.13
2018-02-03T08:56:54.274Z,2.14
2018-02-03T08:59:22.186Z,2.17
2018-02-03T09:01:49.710Z,2.37
2018-02-03T09:04:17.258Z,2.35
2018-02-03T09:06:44.870Z,2.28
2018-02-03T09:09:12.466Z,2.34
2018-02-03T09:11:51.918Z,2.12
2018-02-03T09:14:19.451Z,2.25
2018-02-03T09:16:47.061Z,2.42
2018-02-03T09:19:14.978Z,2.28
2018-02-03T09:21:42.510Z,2.33
2018-02-03T09:24:10.044Z,2.70
2018-02-03T09:26:37.626Z,2.74
2018-02-03T09:29:05.159Z,2.52
2018-02-03T09:31:32.672Z,2.38
2018-02-03T09:34:00.246Z,2.42
2018-02-03T09:36:27.798Z,2.16
2018-02-03T09:38:55.350Z,2.20
2018-02-03T09:41:22.900Z,2.25
2018-02-03T09:43:50.450Z,2.54
2018-02-03T09:46:18.048Z,2.33
2018-02-03T09:48:45.562Z,2.24
2018-02-03T09:51:13.161Z,2.27
2018-02-03T09:53:40.776Z,2.58
2018-02-03T09:56:08.291Z,2.95
2018-02-03T09:58:35.849Z,3.31
2018-02-03T10:01:03.445Z,3.48
2018-02-03T10:03:31.026Z,3.40
2018-02-03T10:05:58.540Z,3.33
2018-02-03T10:08:26.087Z,3.43
2018-02-03T10:10:53.631Z,3.38
2018-02-03T10:13:21.192Z,3.82
2018-02-03T10:15:48.737Z,3.92
2018-02-03T10:18:16.355Z,3.81
2018-02-03T10:20:43.954Z,4.10
2018-02-03T10:23:11.467Z,4.24
2018-02-03T10:25:39.039Z,3.27
2018-02-03T10:28:06.899Z,3.83
2018-02-03T10:30:34.459Z,3.59
2018-02-03T10:33:01.982Z,3.29
2018-02-03T10:35:29.705Z,3.41
2018-02-03T10:37:57.256Z,3.60
2018-02-03T10:40:24.786Z,3.58
2018-02-03T10:42:52.508Z,3.75
2018-02-03T10:45:20.052Z,3.95
2018-02-03T10:47:47.587Z,3.61
2018-02-03T10:50:15.242Z,3.57
2018-02-03T10:52:42.756Z,3.92
2018-02-03T10:55:10.458Z,4.15
2018-02-03T10:57:38.199Z,4.26
2018-02-03T11:00:05.750Z,4.25
2018-02-03T11:02:33.311Z,4.26
2018-02-03T11:05:00.846Z,4.35
2018-02-03T11:07:28.379Z,4.29
2018-02-03T11:09:55.926Z,4.06
2018-02-03T11:12:23.491Z,4.30
2018-02-03T11:14:51.023Z,4.41
2018-02-03T11:17:18.567Z,3.98
2018-02-03T11:19:46.250Z,4.35
2018-02-03T11:22:13.797Z,4.51
2018-02-03T11:24:41.316Z,4.00
2018-02-03T11:27:09.337Z,3.85
2018-02-03T11:29:36.860Z,3.80
2018-02-03T11:32:04.419Z,3.84
2018-02-03T11:34:31.947Z,3.78
2018-02-03T11:36:59.513Z,4.06
2018-02-03T11:39:27.160Z,4.22
2018-02-03T11:41:54.795Z,4.42
2018-02-03T11:44:22.376Z,4.78
2018-02-03T11:46:49.907Z,4.38
2018-02-03T11:49:17.514Z,4.61
2018-02-03T11:51:45.080Z,4.95
2018-02-03T11:54:12.587Z,4.28
2018-02-03T11:56:40.143Z,4.48
2018-02-03T11:59:07.653Z,4.03
2018-02-03T12:01:35.202Z,4.58
2018-02-03T12:04:03.857Z,4.44
2018-02-03T12:06:31.437Z,4.14
2018-02-03T12:08:59.020Z,4.22
2018-02-03T12:11:26.583Z,4.10
2018-02-03T12:13:54.119Z,3.87
2018-02-03T12:16:21.687Z,4.03
2018-02-03T12:18:49.251Z,4.20
2018-02-03T12:21:16.844Z,4.16
2018-02-03T12:23:44.387Z,4.29
2018-02-03T12:26:11.968Z,4.39
2018-02-03T12:28:39.488Z,4.45
2018-02-03T12:31:07.131Z,4.55
2018-02-03T12:33:34.760Z,4.49
2018-02-03T12:36:02.330Z,5.15
2018-02-03T12:38:29.999Z,4.23
2018-02-03T12:40:57.596Z,4.26
2018-02-03T12:43:25.590Z,4.28
2018-02-03T12:45:53.099Z,4.27
2018-02-03T12:48:20.598Z,4.14
2018-02-03T12:50:48.183Z,4.08
2018-02-03T12:53:15.699Z,4.20
2018-02-03T12:55:43.238Z,4.41
2018-02-03T12:58:10.848Z,4.19
2018-02-03T13:00:38.355Z,4.26
2018-02-03T13:03:05.861Z,4.27
2018-02-03T13:05:33.495Z,3.91
2018-02-03T13:08:01.094Z,3.98
2018-02-03T13:10:28.617Z,4.10
2018-02-03T13:12:56.203Z,4.09
2018-02-03T13:15:23.803Z,4.26
2018-02-03T13:17:51.307Z,4.35
2018-02-03T13:20:18.877Z,4.47
2018-02-03T13:22:46.397Z,4.41
2018-02-03T13:25:13.948Z,4.20
2018-02-03T13:27:41.488Z,4.39
2018-02-03T13:30:09.043Z,4.46
2018-02-03T13:32:36.616Z,4.07
2018-02-03T13:35:04.164Z,3.95
2018-02-03T13:37:31.728Z,4.38
2018-02-03T13:39:59.272Z,4.49
2018-02-03T13:42:27.234Z,4.48
2018-02-03T13:44:54.770Z,4.51
2018-02-03T13:47:22.450Z,4.86
2018-02-03T13:49:50.371Z,4.38
2018-02-03T13:52:17.922Z,4.28
2018-02-03T13:54:45.478Z,4.95
2018-02-03T13:57:13.082Z,4.69
2018-02-03T13:59:40.626Z,4.53
2018-02-03T14:02:08.194Z,4.89
2018-02-03T14:04:35.775Z,5.15
2018-02-03T14:07:03.295Z,5.04
2018-02-03T14:09:30.879Z,5.12
2018-02-03T14:11:58.402Z,5.10
2018-02-03T14:14:25.934Z,4.49
2018-02-03T14:16:53.466Z,3.93
2018-02-03T14:19:20.991Z,3.54
2018-02-03T14:21:48.495Z,3.30
2018-02-03T14:24:21.692Z,3.28
2018-02-03T14:26:49.238Z,2.98
2018-02-03T14:29:16.767Z,2.84
2018-02-03T14:31:44.313Z,2.76
2018-02-03T14:34:11.851Z,2.54
2018-02-03T14:36:39.361Z,2.36
2018-02-03T14:39:06.924Z,2.25
2018-02-03T14:41:34.480Z,2.07
2018-02-03T14:44:02.055Z,1.99
2018-02-03T14:46:29.630Z,2.00
2018-02-03T14:48:57.311Z,2.05
2018-02-03T14:51:24.930Z,1.98
2018-02-03T14:53:52.445Z,2.03
2018-02-03T14:56:19.998Z,2.04
2018-02-03T14:58:47.597Z,1.99
2018-02-03T15:01:15.264Z,1.95
2018-02-03T15:03:42.784Z,1.94
2018-02-03T15:06:10.377Z,2.02
2018-02-03T15:08:37.901Z,2.03
2018-02-03T15:11:05.427Z,1.93
2018-02-03T15:13:32.958Z,2.03
2018-02-03T15:16:00.496Z,1.94
2018-02-03T15:18:28.064Z,1.89
2018-02-03T15:20:55.568Z,1.87
2018-02-03T15:23:23.116Z,1.82
2018-02-03T15:25:50.656Z,1.78
2018-02-03T15:28:18.174Z,1.66
2018-02-03T15:30:45.770Z,1.51
2018-02-03T15:33:13.325Z,1.49
2018-02-03T15:35:40.861Z,1.44
2018-02-03T15:38:08.463Z,1.45
2018-02-03T15:40:35.995Z,1.39
2018-02-03T15:43:03.523Z,1.33
2018-02-03T15:45:31.112Z,1.26
2018-02-03T15:47:58.676Z,1.27
2018-02-03T15:50:26.242Z,1.26
2018-02-03T15:52:53.804Z,1.33
2018-02-03T15:55:21.318Z,1.27
2018-02-03T15:57:49.184Z,1.26
2018-02-03T16:00:16.722Z,1.21
2018-02-03T16:02:44.264Z,1.20
2018-02-03T16:05:11.843Z,1.10
2018-02-03T16:07:39.447Z,1.06
2018-02-03T16:10:06.974Z,1.10
2018-02-03T16:12:34.577Z,1.06
2018-02-03T16:15:02.131Z,1.04
2018-02-03T16:17:29.670Z,0.90
2018-02-03T16:19:57.214Z,0.92
2018-02-03T16:22:25.152Z,0.88
2018-02-03T16:24:52.696Z,0.71
2018-02-03T16:27:20.247Z,0.72
2018-02-03T16:29:47.774Z,0.70
2018-02-03T16:32:15.374Z,0.84
2018-02-03T16:34:42.918Z,0.82
2018-02-03T16:37:10.432Z,0.73
2018-02-03T16:39:38.339Z,0.73
2018-02-03T16:42:05.867Z,0.67
2018-02-03T16:44:33.400Z,0.68
2018-02-03T16:47:01.246Z,0.66
2018-02-03T16:49:28.776Z,0.64
2018-02-03T16:51:56.298Z,0.58
2018-02-03T16:54:23.879Z,0.66
2018-02-03T16:56:51.416Z,0.73
2018-02-03T16:59:18.958Z,0.71
2018-02-03T17:01:46.538Z,0.69
2018-02-03T17:04:14.090Z,0.73
2018-02-03T17:06:41.756Z,0.61
2018-02-03T17:09:09.279Z,0.63
2018-02-03T17:11:36.831Z,0.63
2018-02-03T17:14:04.424Z,0.71
2018-02-03T17:16:31.935Z,0.67
2018-02-03T17:18:59.447Z,0.64
2018-02-03T17:21:27.302Z,0.56
2018-02-03T17:23:54.875Z,0.56
2018-02-03T17:26:22.404Z,0.55
2018-02-03T17:28:49.955Z,0.51
2018-02-03T17:31:17.459Z,0.50
2018-02-03T17:33:44.999Z,0.53
2018-02-03T17:36:12.608Z,0.59
2018-02-03T17:38:46.554Z,0.57
2018-02-03T17:41:14.110Z,0.58
2018-02-03T17:43:41.623Z,0.55
2018-02-03T17:46:15.321Z,0.61
2018-02-03T17:48:42.907Z,0.61
2018-02-03T17:51:10.453Z,0.56
2018-02-03T17:53:38.029Z,0.53
2018-02-03T17:56:11.286Z,0.51
2018-02-03T17:58:38.893Z,0.44
2018-02-03T18:01:06.457Z,0.44
2018-02-03T18:03:34.074Z,0.38
2018-02-03T18:06:01.599Z,0.35
2018-02-03T18:08:29.273Z,0.39
2018-02-03T18:10:56.814Z,0.29
2018-02-03T18:13:24.390Z,0.48
2018-02-03T18:15:51.919Z,0.44
2018-02-03T18:18:19.518Z,0.39
2018-02-03T18:20:47.040Z,0.46
2018-02-03T18:23:14.552Z,0.48
2018-02-03T18:25:42.143Z,0.51
2018-02-03T18:28:09.679Z,0.52
2018-02-03T18:30:37.203Z,0.54
2018-02-03T18:33:04.884Z,0.51
2018-02-03T18:35:32.404Z,0.48
2018-02-03T18:37:59.939Z,0.53
2018-02-03T18:40:27.447Z,0.63
2018-02-03T18:42:55.020Z,0.65
2018-02-03T18:45:34.530Z,0.68
2018-02-03T18:48:02.086Z,0.59
2018-02-03T18:50:29.617Z,0.63
2018-02-03T18:52:57.167Z,0.66
2018-02-03T18:55:24.707Z,0.62
2018-02-03T18:57:52.296Z,0.56
2018-02-03T19:00:19.958Z,0.58
2018-02-03T19:02:47.649Z,0.49
2018-02-03T19:05:15.246Z,0.67
2018-02-03T19:07:42.777Z,0.66
2018-02-03T19:10:10.360Z,0.63
2018-02-03T19:12:37.942Z,0.62
2018-02-03T19:15:05.538Z,0.62
2018-02-03T19:17:33.095Z,0.56
2018-02-03T19:20:00.636Z,0.61
2018-02-03T19:22:28.193Z,0.66
2018-02-03T19:24:55.778Z,0.57
2018-02-03T19:27:23.349Z,0.74
2018-02-03T19:29:50.878Z,0.71
2018-02-03T19:32:18.768Z,0.55
2018-02-03T19:34:46.402Z,0.58
2018-02-03T19:37:13.930Z,0.44
2018-02-03T19:39:41.886Z,0.53
2018-02-03T19:42:09.537Z,0.49
2018-02-03T19:44:37.059Z,0.48
2018-02-03T19:47:04.629Z,0.49
2018-02-03T19:49:32.159Z,0.53
2018-02-03T19:51:59.822Z,0.48
2018-02-03T19:54:27.342Z,0.46
2018-02-03T19:56:54.927Z,0.37
2018-02-03T19:59:22.530Z,0.36
2018-02-03T20:01:50.039Z,0.38
2018-02-03T20:04:17.605Z,0.34
2018-02-03T20:06:45.139Z,0.38
2018-02-03T20:09:12.731Z,0.35
2018-02-03T20:11:40.404Z,0.30
2018-02-03T20:14:07.970Z,0.18
2018-02-03T20:16:35.639Z,0.15
2018-02-03T20:19:03.176Z,0.09
2018-02-03T20:21:31.058Z,0.06
2018-02-03T20:23:58.671Z,0.02
2018-02-03T20:26:26.174Z,0.04
2018-02-03T20:28:53.732Z,0.01
2018-02-03T20:31:21.304Z,0.01
2018-02-03T20:33:48.866Z,0.04
2018-02-03T20:36:16.436Z,-0.02
2018-02-03T20:38:44.363Z,-0.09
2018-02-03T20:41:11.996Z,-0.12
2018-02-03T20:43:39.538Z,-0.09
2018-02-03T20:46:07.099Z,-0.10
2018-02-03T20:48:34.677Z,-0.12
2018-02-03T20:51:02.271Z,-0.06
2018-02-03T20:53:29.831Z,-0.11
2018-02-03T20:55:57.344Z,-0.10
2018-02-03T20:58:24.945Z,-0.09
2018-02-03T21:00:52.467Z,-0.19
2018-02-03T21:03:20.006Z,-0.11
2018-02-03T21:05:47.584Z,-0.14
2018-02-03T21:08:15.108Z,-0.18
2018-02-03T21:10:42.681Z,-0.27
2018-02-03T21:13:10.293Z,-0.20
2018-02-03T21:15:37.930Z,-0.22
2018-02-03T21:18:05.546Z,-0.20
2018-02-03T21:20:33.516Z,-0.20
2018-02-03T21:23:01.028Z,-0.19
2018-02-03T21:25:28.585Z,-0.24
2018-02-03T21:27:56.414Z,-0.19
2018-02-03T21:30:23.970Z,-0.13
2018-02-03T21:32:51.482Z,-0.09
2018-02-03T21:35:19.020Z,-0.17
2018-02-03T21:37:46.682Z,-0.23
2018-02-03T21:40:14.345Z,-0.22
2018-02-03T21:42:41.887Z,-0.21
2018-02-03T21:45:09.455Z,-0.15
2018-02-03T21:47:37.090Z,-0.19
2018-02-03T21:50:04.603Z,-0.19
2018-02-03T21:52:32.196Z,-0.25
2018-02-03T21:54:59.766Z,-0.20
2018-02-03T21:57:27.361Z,-0.24
2018-02-03T21:59:55.301Z,-0.17
2018-02-03T22:02:22.849Z,-0.18
2018-02-03T22:04:50.410Z,-0.25
2018-02-03T22:07:17.960Z,-0.32
2018-02-03T22:09:45.494Z,-0.25
2018-02-03T22:12:13.056Z,-0.35
2018-02-03T22:14:40.680Z,-0.39
2018-02-03T22:17:08.256Z,-0.46
2018-02-03T22:19:35.799Z,-0.49
2018-02-03T22:22:03.391Z,-0.52
2018-02-03T22:24:30.908Z,-0.43
2018-02-03T22:26:58.451Z,-0.42
2018-02-03T22:29:26.019Z,-0.42
2018-02-03T22:31:53.612Z,-0.41
2018-02-03T22:34:21.125Z,-0.39
2018-02-03T22:36:48.715Z,-0.41
2018-02-03T22:39:16.286Z,-0.50
2018-02-03T22:41:43.843Z,-0.50
2018-02-03T22:44:11.424Z,-0.56
2018-02-03T22:46:38.965Z,-0.57
2018-02-03T22:49:06.861Z,-0.52
2018-02-03T22:51:34.426Z,-0.53
2018-02-03T22:54:01.948Z,-0.55
2018-02-03T22:56:29.548Z,-0.47
2018-02-03T22:58:57.087Z,-0.52
2018-02-03T23:01:24.696Z,-0.53
2018-02-03T23:03:52.269Z,-0.60
2018-02-03T23:06:19.808Z,-0.57
2018-02-03T23:08:47.660Z,-0.51
2018-02-03T23:11:15.214Z,-0.47
2018-02-03T23:13:42.734Z,-0.48
2018-02-03T23:16:10.657Z,-0.47
2018-02-03T23:18:38.321Z,-0.44
2018-02-03T23:21:05.984Z,-0.43
2018-02-03T23:23:33.546Z,-0.48
2018-02-03T23:26:01.066Z,-0.52
2018-02-03T23:28:28.635Z,-0.57
2018-02-03T23:30:56.280Z,-0.57
2018-02-03T23:33:23.809Z,-0.55
2018-02-03T23:35:51.376Z,-0.55
2018-02-03T23:38:18.948Z,-0.54
2018-02-03T23:40:46.592Z,-0.55
2018-02-03T23:43:14.135Z,-0.45
2018-02-03T23:45:41.725Z,-0.52
2018-02-03T23:48:09.362Z,-0.45
2018-02-03T23:50:36.912Z,-0.48
2018-02-03T23:53:04.503Z,-0.46
2018-02-03T23:55:32.033Z,-0.52
2018-02-03T23:57:59.599Z,-0.51
